Time;durP1;ratioP1;P1;durP2;ratioP2;P2;SDS_P1;SDS_P2;PMS_P1;PMS_P2;Temp;Humidity;BMP_temperature;BMP_pressure;BME280_temperature;BME280_humidity;BME280_pressure;Samples;Min_cycle;Max_cycle;Signal;HPM_P1;HPM_P2
2023/09/19 00:00:47;;;;;;;8.98;1.90;;;14.30;99.90;;;;;;5073183;28;20044;-50
2023/09/19 00:03:13;;;;;;;8.48;1.67;;;14.30;99.90;;;;;;5072579;28;20509;-46
2023/09/19 00:05:39;;;;;;;6.80;1.50;;;14.20;99.90;;;;;;5072788;28;20522;-45
2023/09/19 00:08:05;;;;;;;8.20;1.67;;;14.30;99.90;;;;;;5073037;28;20045;-46
2023/09/19 00:10:34;;;;;;;8.55;1.95;;;14.20;99.90;;;;;;5072711;28;20048;-46
2023/09/19 00:13:05;;;;;;;13.32;2.47;;;14.20;99.90;;;;;;5073176;28;20129;-46
2023/09/19 00:15:35;;;;;;;7.72;1.50;;;14.20;99.90;;;;;;5072951;28;20032;-46
2023/09/19 00:18:01;;;;;;;10.73;1.75;;;14.20;99.90;;;;;;5072667;28;20109;-48
2023/09/19 00:20:29;;;;;;;8.93;2.10;;;14.20;99.90;;;;;;5071945;28;20481;-46
2023/09/19 00:22:55;;;;;;;11.38;2.00;;;14.20;99.90;;;;;;5072462;28;20577;-47
2023/09/19 00:25:21;;;;;;;5.80;1.70;;;14.30;99.90;;;;;;5072646;28;20079;-46
2023/09/19 00:27:49;;;;;;;8.30;1.90;;;14.20;99.90;;;;;;5071133;28;20036;-48
2023/09/19 00:30:19;;;;;;;10.90;1.90;;;14.20;99.90;;;;;;5072424;28;20053;-47
2023/09/19 00:32:47;;;;;;;12.15;1.88;;;14.30;99.90;;;;;;5072402;28;20044;-48
2023/09/19 00:35:15;;;;;;;10.40;2.13;;;14.20;99.90;;;;;;5072595;28;20554;-45
2023/09/19 00:37:41;;;;;;;7.68;1.58;;;14.20;99.90;;;;;;5072376;28;20036;-45
2023/09/19 00:40:15;;;;;;;9.55;2.15;;;14.30;99.90;;;;;;5071054;28;20049;-45
2023/09/19 00:42:42;;;;;;;9.73;2.25;;;14.20;99.90;;;;;;5072372;28;20055;-46
2023/09/19 00:45:11;;;;;;;13.18;2.20;;;14.10;99.90;;;;;;5072503;28;20473;-46
2023/09/19 00:47:41;;;;;;;10.98;2.08;;;14.20;99.90;;;;;;5072333;28;20063;-48
2023/09/19 00:50:09;;;;;;;7.07;1.60;;;14.10;99.90;;;;;;5072195;28;20093;-47
2023/09/19 00:52:38;;;;;;;8.13;2.00;;;14.20;99.90;;;;;;5072245;28;20032;-46
2023/09/19 00:55:08;;;;;;;10.38;2.25;;;14.20;99.90;;;;;;5072356;28;20040;-45
2023/09/19 00:57:36;;;;;;;10.82;1.90;;;14.20;99.90;;;;;;5070948;28;20420;-46
2023/09/19 01:00:15;;;;;;;12.45;2.05;;;14.20;99.80;;;;;;5070822;28;20051;-49
2023/09/19 01:02:45;;;;;;;13.77;2.42;;;14.20;98.70;;;;;;5071990;28;20060;-50
2023/09/19 01:05:12;;;;;;;9.30;1.90;;;14.20;99.90;;;;;;5072008;28;20075;-50
2023/09/19 01:07:41;;;;;;;10.55;3.05;;;14.10;99.10;;;;;;5072233;28;20051;-47
2023/09/19 01:10:10;;;;;;;10.52;1.67;;;14.10;99.90;;;;;;5071871;28;20044;-51
2023/09/19 01:12:59;;;;;;;8.90;1.92;;;14.10;98.10;;;;;;5071995;28;20039;-49
2023/09/19 01:15:36;;;;;;;10.32;2.78;;;14.10;99.10;;;;;;5072248;28;20109;-48
2023/09/19 01:18:30;;;;;;;11.00;2.05;;;14.00;97.30;;;;;;5070645;28;20041;-48
2023/09/19 01:21:34;;;;;;;9.38;1.77;;;14.00;99.30;;;;;;5070937;28;20055;-45
2023/09/19 01:24:42;;;;;;;9.23;1.95;;;14.00;96.00;;;;;;5049478;28;20430;-46
2023/09/19 01:27:19;;;;;;;10.55;2.22;;;13.90;94.60;;;;;;5072044;28;20044;-46
2023/09/19 01:29:51;;;;;;;11.90;1.95;;;13.90;93.50;;;;;;5070504;28;20051;-46
2023/09/19 01:32:22;;;;;;;11.07;2.42;;;13.80;94.00;;;;;;5073003;28;20170;-46
2023/09/19 01:34:48;;;;;;;11.38;2.47;;;13.90;94.00;;;;;;5075949;28;20060;-46
2023/09/19 01:37:25;;;;;;;11.50;2.10;;;13.70;91.40;;;;;;5075721;28;20040;-45
2023/09/19 01:40:25;;;;;;;9.38;2.72;;;13.70;93.90;;;;;;5075756;28;20048;-46
2023/09/19 01:43:21;;;;;;;12.77;2.55;;;13.80;90.40;;;;;;5075278;28;20121;-45
2023/09/19 01:46:25;;;;;;;8.88;1.95;;;13.70;83.00;;;;;;5075709;28;20528;-47
2023/09/19 01:49:10;;;;;;;6.82;1.77;;;13.70;81.90;;;;;;5075648;28;20032;-46
2023/09/19 01:51:51;;;;;;;10.27;2.60;;;13.60;79.50;;;;;;5075661;28;20128;-45
2023/09/19 01:54:40;;;;;;;10.52;2.08;;;13.60;74.70;;;;;;5075657;28;20044;-45
2023/09/19 01:57:14;;;;;;;8.25;1.80;;;13.60;70.90;;;;;;5075293;28;20396;-46
2023/09/19 01:59:50;;;;;;;9.45;2.10;;;13.60;74.90;;;;;;5075550;28;20052;-46
2023/09/19 02:02:17;;;;;;;10.45;2.55;;;13.50;68.40;;;;;;5075106;28;20704;-46
2023/09/19 02:04:43;;;;;;;5.70;1.75;;;13.50;61.40;;;;;;5075180;28;20054;-45
2023/09/19 02:07:09;;;;;;;9.93;2.58;;;13.50;62.10;;;;;;5075273;28;20036;-46
2023/09/19 02:09:38;;;;;;;11.35;1.70;;;13.40;53.40;;;;;;5075192;28;20087;-46
2023/09/19 02:12:05;;;;;;;10.98;1.77;;;13.50;55.40;;;;;;5075394;28;20126;-46
2023/09/19 02:14:31;;;;;;;8.85;2.10;;;13.50;54.30;;;;;;5074048;28;20056;-46
2023/09/19 02:16:56;;;;;;;10.48;2.17;;;13.60;50.40;;;;;;5075578;28;20037;-49
2023/09/19 02:19:22;;;;;;;8.48;1.70;;;13.50;46.80;;;;;;5074982;28;20033;-47
2023/09/19 02:21:48;;;;;;;5.38;1.55;;;13.50;44.50;;;;;;5074999;28;20044;-46
2023/09/19 02:24:15;;;;;;;11.32;1.90;;;13.50;45.20;;;;;;5074819;28;20473;-47
2023/09/19 02:26:41;;;;;;;13.63;2.42;;;13.50;44.10;;;;;;5073533;28;20098;-50
2023/09/19 02:29:06;;;;;;;8.40;1.88;;;13.40;44.50;;;;;;5075109;28;20033;-49
2023/09/19 02:31:32;;;;;;;10.93;1.83;;;13.40;51.30;;;;;;5074513;28;20044;-46
2023/09/19 02:33:58;;;;;;;9.45;1.98;;;13.40;49.50;;;;;;5056781;28;20040;-47
2023/09/19 02:36:23;;;;;;;8.95;1.75;;;13.50;50.70;;;;;;5074785;28;20028;-47
2023/09/19 02:38:50;;;;;;;12.38;2.47;;;13.40;45.40;;;;;;5074712;28;20028;-49
2023/09/19 02:41:15;;;;;;;10.70;1.98;;;13.40;44.50;;;;;;5073253;28;20047;-47
2023/09/19 02:43:42;;;;;;;9.95;2.03;;;13.40;49.20;;;;;;5073653;28;20033;-47
2023/09/19 02:46:09;;;;;;;7.43;1.42;;;13.30;46.90;;;;;;5073212;28;20052;-47
2023/09/19 02:48:35;;;;;;;7.55;1.80;;;13.40;50.20;;;;;;5074296;28;20479;-45
2023/09/19 02:51:03;;;;;;;9.85;2.03;;;13.40;49.20;;;;;;5074625;28;20044;-46
2023/09/19 02:53:30;;;;;;;8.63;2.00;;;13.30;48.40;;;;;;5073060;28;20101;-46
2023/09/19 02:55:56;;;;;;;7.78;1.80;;;13.40;48.00;;;;;;5074638;28;20064;-46
2023/09/19 02:58:23;;;;;;;8.95;2.63;;;13.40;51.70;;;;;;5074235;28;20060;-46
2023/09/19 03:00:51;;;;;;;8.73;1.88;;;13.40;48.00;;;;;;5074237;28;20481;-45
2023/09/19 03:03:17;;;;;;;7.72;1.88;;;13.40;45.50;;;;;;5074080;28;20515;-46
2023/09/19 03:05:46;;;;;;;9.50;1.77;;;13.50;46.30;;;;;;5074155;28;20036;-49
2023/09/19 03:08:14;;;;;;;10.50;1.90;;;13.50;45.30;;;;;;5074143;28;20041;-47
2023/09/19 03:10:40;;;;;;;9.23;1.95;;;13.50;40.10;;;;;;5072859;28;20060;-47
2023/09/19 03:13:09;;;;;;;9.98;1.70;;;13.60;39.70;;;;;;5073954;28;20033;-47
2023/09/19 03:15:41;;;;;;;8.55;1.83;;;13.60;35.30;;;;;;5073936;28;20047;-48
2023/09/19 03:18:06;;;;;;;10.95;2.42;;;13.60;35.80;;;;;;5074126;28;20111;-46
2023/09/19 03:20:32;;;;;;;10.02;2.03;;;13.60;32.50;;;;;;5073951;28;20480;-45
2023/09/19 03:22:57;;;;;;;9.80;1.92;;;13.50;33.20;;;;;;5073903;28;20488;-46
2023/09/19 03:25:24;;;;;;;8.50;1.75;;;13.50;37.30;;;;;;5072724;28;20488;-45
2023/09/19 03:27:50;;;;;;;8.48;1.80;;;13.50;39.80;;;;;;5073726;28;20398;-46
2023/09/19 03:30:16;;;;;;;8.88;1.88;;;13.50;48.70;;;;;;5073741;28;20044;-50
2023/09/19 03:32:46;;;;;;;6.43;1.50;;;13.50;54.80;;;;;;5072476;28;20106;-45
2023/09/19 03:35:14;;;;;;;7.68;1.90;;;13.50;53.50;;;;;;5073495;28;20041;-45
2023/09/19 03:37:41;;;;;;;8.50;1.98;;;13.40;57.50;;;;;;5073526;28;20044;-48
2023/09/19 03:40:10;;;;;;;9.18;2.28;;;13.30;58.90;;;;;;5073652;28;20044;-47
2023/09/19 03:42:38;;;;;;;8.30;1.73;;;13.30;62.50;;;;;;5073625;28;20098;-46
2023/09/19 03:45:05;;;;;;;8.60;1.52;;;13.20;68.00;;;;;;5073501;28;20469;-46
2023/09/19 03:47:31;;;;;;;9.80;1.35;;;13.20;69.90;;;;;;5073255;28;20056;-45
2023/09/19 03:49:56;;;;;;;8.55;1.92;;;13.10;71.40;;;;;;5073117;28;20052;-47
2023/09/19 03:52:22;;;;;;;8.18;1.63;;;13.10;75.40;;;;;;5073409;28;20036;-47
2023/09/19 03:54:48;;;;;;;7.05;1.73;;;12.90;75.10;;;;;;5071853;28;20048;-50
2023/09/19 03:57:17;;;;;;;8.23;1.92;;;12.90;80.00;;;;;;5073288;28;20040;-49
2023/09/19 03:59:42;;;;;;;16.30;2.35;;;12.90;81.90;;;;;;5072089;28;20126;-48
2023/09/19 04:02:13;;;;;;;13.00;1.80;;;12.90;80.40;;;;;;5073004;28;20068;-46
2023/09/19 04:04:38;;;;;;;7.25;1.77;;;12.80;77.20;;;;;;5073250;28;20058;-49
2023/09/19 04:07:04;;;;;;;9.68;1.70;;;12.90;77.60;;;;;;5072800;28;20043;-46
2023/09/19 04:09:30;;;;;;;7.55;1.90;;;12.90;78.30;;;;;;5072996;28;20047;-45
2023/09/19 04:11:56;;;;;;;8.88;1.92;;;12.90;79.00;;;;;;5073056;28;20397;-47
2023/09/19 04:14:21;;;;;;;9.80;2.38;;;12.80;78.90;;;;;;5072789;28;20040;-46
2023/09/19 04:16:47;;;;;;;12.07;2.05;;;12.90;82.50;;;;;;5072634;28;20039;-46
2023/09/19 04:19:14;;;;;;;9.90;1.70;;;12.90;81.80;;;;;;5072822;28;20072;-47
2023/09/19 04:21:40;;;;;;;8.68;1.85;;;12.90;87.50;;;;;;5072560;28;20052;-47
2023/09/19 04:24:06;;;;;;;6.05;1.20;;;13.00;89.10;;;;;;5071657;28;20040;-48
2023/09/19 04:26:32;;;;;;;9.18;1.63;;;13.00;92.40;;;;;;5072630;28;20128;-46
2023/09/19 04:28:58;;;;;;;11.70;2.38;;;12.90;94.40;;;;;;5072649;28;20111;-45
2023/09/19 04:31:24;;;;;;;9.23;1.70;;;12.90;96.40;;;;;;5072652;28;20546;-46
2023/09/19 04:33:49;;;;;;;6.90;1.92;;;13.00;97.00;;;;;;5072669;28;20076;-46
2023/09/19 04:36:15;;;;;;;9.07;1.60;;;13.00;97.50;;;;;;5072319;28;20067;-50
2023/09/19 04:38:41;;;;;;;8.10;1.65;;;12.90;96.70;;;;;;5072321;28;20032;-45
2023/09/19 04:41:06;;;;;;;6.18;1.80;;;12.90;96.80;;;;;;5072538;28;20480;-46
2023/09/19 04:43:32;;;;;;;8.73;2.20;;;12.90;98.10;;;;;;5072485;28;20365;-45
2023/09/19 04:46:00;;;;;;;11.02;2.33;;;12.90;97.20;;;;;;5072586;28;20036;-47
2023/09/19 04:48:26;;;;;;;11.05;2.30;;;13.00;99.80;;;;;;5072528;28;20048;-46
2023/09/19 04:50:51;;;;;;;8.10;2.05;;;13.00;99.90;;;;;;5072196;28;20090;-45
2023/09/19 04:53:20;;;;;;;7.75;2.38;;;13.00;99.90;;;;;;5072231;28;20037;-46
2023/09/19 04:55:49;;;;;;;7.75;2.05;;;13.00;99.90;;;;;;5072163;28;20594;-47
2023/09/19 04:58:15;;;;;;;9.68;1.90;;;13.00;99.90;;;;;;5070751;28;20142;-46
2023/09/19 05:00:41;;;;;;;9.18;2.03;;;13.00;99.90;;;;;;5072231;28;20136;-46
2023/09/19 05:03:08;;;;;;;13.05;2.55;;;13.00;99.90;;;;;;5071914;28;20156;-46
2023/09/19 05:05:34;;;;;;;8.45;1.90;;;13.00;99.90;;;;;;5071893;28;20151;-46
2023/09/19 05:08:00;;;;;;;7.68;1.88;;;13.00;99.90;;;;;;5071772;28;20060;-48
2023/09/19 05:10:26;;;;;;;10.75;3.65;;;13.00;99.90;;;;;;5071809;28;20044;-46
2023/09/19 05:12:55;;;;;;;8.50;2.05;;;13.00;99.90;;;;;;5072135;28;20424;-49
2023/09/19 05:15:21;;;;;;;10.75;2.25;;;13.00;99.90;;;;;;5072090;28;20049;-46
2023/09/19 05:17:51;;;;;;;6.90;1.80;;;13.10;99.90;;;;;;5072212;28;20047;-47
2023/09/19 05:20:32;;;;;;;8.88;1.65;;;13.10;99.90;;;;;;5071827;28;20051;-45
2023/09/19 05:23:13;;;;;;;12.35;2.28;;;13.10;99.90;;;;;;5071768;28;20055;-45
2023/09/19 05:25:39;;;;;;;9.18;2.03;;;13.10;99.90;;;;;;5071935;28;20043;-45
2023/09/19 05:28:11;;;;;;;9.15;1.90;;;13.10;99.90;;;;;;5071741;28;20510;-47
2023/09/19 05:30:40;;;;;;;10.50;2.10;;;13.20;99.90;;;;;;5071659;28;20048;-46
2023/09/19 05:33:07;;;;;;;7.70;2.08;;;13.20;99.90;;;;;;5072055;28;20056;-46
2023/09/19 05:35:33;;;;;;;9.80;2.30;;;13.20;99.90;;;;;;5072004;28;20050;-45
2023/09/19 05:37:59;;;;;;;6.80;1.65;;;13.30;99.90;;;;;;5071751;28;20040;-45
2023/09/19 05:40:26;;;;;;;10.52;2.13;;;13.30;99.90;;;;;;5071632;28;20047;-48
2023/09/19 05:42:51;;;;;;;8.57;1.52;;;13.30;99.90;;;;;;5071142;28;20072;-46
2023/09/19 05:45:22;;;;;;;7.95;1.70;;;13.20;99.90;;;;;;5071436;28;20076;-46
2023/09/19 05:47:49;;;;;;;11.30;1.73;;;13.30;99.90;;;;;;5071434;28;20052;-46
2023/09/19 05:50:16;;;;;;;8.10;1.55;;;13.40;99.90;;;;;;5071150;28;20047;-47
2023/09/19 05:52:42;;;;;;;8.93;2.00;;;13.30;99.90;;;;;;5071620;28;20041;-46
2023/09/19 05:55:08;;;;;;;8.60;1.90;;;13.30;99.30;;;;;;5071459;28;20107;-46
2023/09/19 05:57:42;;;;;;;7.93;1.77;;;13.40;97.00;;;;;;5071305;28;20450;-46
2023/09/19 06:00:10;;;;;;;10.50;1.70;;;13.50;96.10;;;;;;5070323;28;20040;-46
2023/09/19 06:02:40;;;;;;;11.88;2.42;;;13.50;93.50;;;;;;5070883;28;20582;-46
2023/09/19 06:05:06;;;;;;;10.07;1.98;;;13.60;91.70;;;;;;5070910;28;20036;-46
2023/09/19 06:07:36;;;;;;;11.25;2.53;;;13.70;85.90;;;;;;5071282;28;20040;-45
2023/09/19 06:10:05;;;;;;;10.25;1.70;;;13.70;85.10;;;;;;5071182;28;20043;-47
2023/09/19 06:12:33;;;;;;;8.70;1.70;;;13.70;82.00;;;;;;5071290;28;20481;-47
2023/09/19 06:14:59;;;;;;;8.05;1.70;;;13.70;79.60;;;;;;5070264;28;20044;-46
2023/09/19 06:17:27;;;;;;;6.82;1.70;;;13.80;81.50;;;;;;5071918;28;20500;-50
2023/09/19 06:19:53;;;;;;;7.93;1.50;;;13.80;81.20;;;;;;5073151;28;20071;-47
2023/09/19 06:22:19;;;;;;;9.82;2.22;;;13.80;85.10;;;;;;5074989;28;20445;-45
2023/09/19 06:24:46;;;;;;;8.80;1.83;;;13.80;90.70;;;;;;5074609;28;20053;-46
2023/09/19 06:27:13;;;;;;;8.73;1.60;;;13.80;91.10;;;;;;5074933;28;20541;-46
2023/09/19 06:29:39;;;;;;;10.57;2.05;;;13.90;92.30;;;;;;5074698;28;20449;-46
2023/09/19 06:32:11;;;;;;;8.55;2.55;;;13.90;93.30;;;;;;5075034;28;20036;-46
2023/09/19 06:34:38;;;;;;;10.70;1.90;;;13.90;93.50;;;;;;5074700;28;20032;-46
2023/09/19 06:37:06;;;;;;;9.05;1.98;;;14.00;93.40;;;;;;5074475;28;20076;-49
2023/09/19 06:39:31;;;;;;;9.93;1.90;;;14.00;93.50;;;;;;5074719;28;20048;-46
2023/09/19 06:41:58;;;;;;;11.88;2.03;;;14.00;93.30;;;;;;5074281;28;20033;-48
2023/09/19 06:44:24;;;;;;;9.35;1.95;;;14.00;93.90;;;;;;5073353;28;20047;-46
2023/09/19 06:46:51;;;;;;;6.95;1.67;;;14.00;93.10;;;;;;5074362;28;20045;-47
2023/09/19 06:49:17;;;;;;;6.55;1.60;;;14.10;91.60;;;;;;5074111;28;20040;-45
2023/09/19 06:51:43;;;;;;;9.80;2.30;;;14.10;91.00;;;;;;5074139;28;20126;-48
2023/09/19 06:54:10;;;;;;;10.82;1.85;;;14.20;88.70;;;;;;5072911;28;20044;-50
2023/09/19 06:56:36;;;;;;;9.30;1.92;;;14.20;91.20;;;;;;5072749;28;20110;-49
2023/09/19 06:59:02;;;;;;;8.38;2.13;;;14.20;90.50;;;;;;5074327;28;20036;-46
2023/09/19 07:01:28;;;;;;;11.48;1.85;;;14.30;85.30;;;;;;5073945;28;20090;-46
2023/09/19 07:03:54;;;;;;;10.80;2.00;;;14.30;73.90;;;;;;5074294;28;20527;-47
2023/09/19 07:06:20;;;;;;;7.45;1.73;;;14.40;81.00;;;;;;5074029;28;20102;-45
2023/09/19 07:08:46;;;;;;;9.27;2.03;;;14.50;82.20;;;;;;5074090;28;20047;-47
2023/09/19 07:11:12;;;;;;;10.75;2.22;;;14.50;86.70;;;;;;5074187;28;20477;-46
2023/09/19 07:13:39;;;;;;;9.27;1.75;;;14.50;88.50;;;;;;5073864;28;20112;-45
2023/09/19 07:16:05;;;;;;;11.25;1.90;;;14.60;86.80;;;;;;5073534;28;20485;-47
2023/09/19 07:18:31;;;;;;;10.63;2.05;;;14.60;88.00;;;;;;5074345;28;20075;-45
2023/09/19 07:21:04;;;;;;;7.78;2.58;;;14.60;86.70;;;;;;5073778;28;20040;-46
2023/09/19 07:23:34;;;;;;;10.38;2.05;;;14.70;84.60;;;;;;5073149;28;20049;-48
2023/09/19 07:26:01;;;;;;;8.98;2.72;;;14.60;81.80;;;;;;5073543;28;20456;-48
2023/09/19 07:28:28;;;;;;;11.75;1.80;;;14.70;83.80;;;;;;5073483;28;20070;-46
2023/09/19 07:30:54;;;;;;;9.85;2.28;;;14.70;81.40;;;;;;5073419;28;20431;-48
2023/09/19 07:33:19;;;;;;;12.32;2.80;;;14.70;78.90;;;;;;5073236;28;20154;-49
2023/09/19 07:35:46;;;;;;;6.93;1.70;;;14.70;72.70;;;;;;5073285;28;20396;-47
2023/09/19 07:38:12;;;;;;;11.90;2.40;;;14.80;76.80;;;;;;5073309;28;20641;-47
2023/09/19 07:40:38;;;;;;;9.95;2.08;;;14.80;74.20;;;;;;5073145;28;20044;-46
2023/09/19 07:43:04;;;;;;;11.70;2.95;;;14.90;75.00;;;;;;5073415;28;20044;-45
2023/09/19 07:45:31;;;;;;;12.80;2.13;;;15.00;70.70;;;;;;5073502;28;20123;-47
2023/09/19 07:47:57;;;;;;;9.50;1.90;;;15.00;70.40;;;;;;5072041;28;20049;-51
2023/09/19 07:50:23;;;;;;;11.18;2.53;;;15.10;70.20;;;;;;5072893;28;20480;-47
2023/09/19 07:52:50;;;;;;;14.05;1.90;;;15.10;68.60;;;;;;5073265;28;20040;-46
2023/09/19 07:55:17;;;;;;;13.50;2.30;;;15.20;69.20;;;;;;5073197;28;20040;-48
2023/09/19 07:57:43;;;;;;;12.65;2.60;;;15.20;59.70;;;;;;5072822;28;20040;-45
2023/09/19 08:00:10;;;;;;;9.63;2.28;;;15.10;64.10;;;;;;5072971;28;20051;-46
2023/09/19 08:02:43;;;;;;;9.48;1.90;;;15.20;66.10;;;;;;5071218;28;20056;-49
2023/09/19 08:05:10;;;;;;;13.73;3.85;;;15.20;66.20;;;;;;5072791;28;20097;-49
2023/09/19 08:07:40;;;;;;;9.45;2.15;;;15.10;62.60;;;;;;5072728;28;20037;-45
2023/09/19 08:10:08;;;;;;;8.88;1.90;;;15.10;64.40;;;;;;5072514;28;20054;-47
2023/09/19 08:12:36;;;;;;;12.77;3.08;;;15.10;68.50;;;;;;5072845;28;20032;-50
2023/09/19 08:15:03;;;;;;;9.00;2.05;;;15.00;65.20;;;;;;5072576;28;20032;-48
2023/09/19 08:17:29;;;;;;;9.15;2.35;;;15.10;66.20;;;;;;5071313;28;20124;-47
2023/09/19 08:19:55;;;;;;;10.77;2.47;;;15.10;67.90;;;;;;5072673;28;20053;-47
2023/09/19 08:22:23;;;;;;;10.05;2.33;;;15.20;71.40;;;;;;5072746;28;20044;-49
2023/09/19 08:24:49;;;;;;;12.07;2.28;;;15.30;69.20;;;;;;5072754;28;20048;-47
2023/09/19 08:27:15;;;;;;;13.38;2.78;;;15.30;70.30;;;;;;5072527;28;20052;-46
2023/09/19 08:29:42;;;;;;;9.07;2.30;;;15.50;69.60;;;;;;5072246;28;20128;-48
2023/09/19 08:32:08;;;;;;;8.55;2.40;;;15.60;71.20;;;;;;5072190;28;20044;-48
2023/09/19 08:34:33;;;;;;;10.02;2.35;;;15.70;68.00;;;;;;5072287;28;20043;-47
2023/09/19 08:36:59;;;;;;;14.20;2.38;;;15.60;67.40;;;;;;5072443;28;20392;-47
2023/09/19 08:39:25;;;;;;;9.82;2.83;;;15.60;66.00;;;;;;5072546;28;20028;-47
2023/09/19 08:42:01;;;;;;;11.82;2.22;;;15.70;67.40;;;;;;5071643;28;20056;-47
2023/09/19 08:44:30;;;;;;;12.15;2.63;;;15.70;64.00;;;;;;5072184;28;20036;-45
2023/09/19 08:47:07;;;;;;;9.07;2.20;;;15.80;64.80;;;;;;5072246;28;20492;-46
2023/09/19 08:49:59;;;;;;;10.00;2.10;;;16.00;65.20;;;;;;5072062;28;20170;-46
2023/09/19 08:52:33;;;;;;;15.52;2.80;;;16.10;51.30;;;;;;5072064;28;20044;-46
2023/09/19 08:55:04;;;;;;;13.50;2.83;;;16.20;53.40;;;;;;5071384;28;20045;-47
2023/09/19 08:57:37;;;;;;;12.15;3.05;;;16.30;48.50;;;;;;5072029;28;20622;-46
2023/09/19 09:00:12;;;;;;;12.25;2.28;;;16.40;43.50;;;;;;5072223;28;20137;-47
2023/09/19 09:02:42;;;;;;;10.93;2.30;;;16.40;37.70;;;;;;5071977;28;20105;-47
2023/09/19 09:05:10;;;;;;;12.95;2.60;;;16.40;35.20;;;;;;5071827;28;20124;-48
2023/09/19 09:07:37;;;;;;;8.60;2.90;;;16.40;26.80;;;;;;5071965;28;20102;-46
2023/09/19 09:10:03;;;;;;;10.48;2.10;;;16.40;29.80;;;;;;5071965;28;20044;-46
2023/09/19 09:12:30;;;;;;;9.63;2.30;;;16.50;26.10;;;;;;5071871;28;20044;-49
2023/09/19 09:14:57;;;;;;;8.52;2.13;;;16.60;28.10;;;;;;5072030;28;20086;-47
2023/09/19 09:17:24;;;;;;;11.68;2.35;;;16.60;28.20;;;;;;5071931;28;20076;-47
2023/09/19 09:19:53;;;;;;;12.77;2.38;;;16.60;23.20;;;;;;5071897;28;20040;-45
2023/09/19 09:22:21;;;;;;;13.05;2.70;;;16.50;25.90;;;;;;5071849;28;20036;-47
2023/09/19 09:24:54;;;;;;;10.98;3.08;;;16.60;29.40;;;;;;5072109;28;20036;-48
2023/09/19 09:27:23;;;;;;;14.95;3.40;;;16.60;28.30;;;;;;5071776;28;20127;-50
2023/09/19 09:29:49;;;;;;;9.45;3.03;;;16.60;25.00;;;;;;5070621;28;20059;-49
2023/09/19 09:32:25;;;;;;;13.10;2.88;;;16.60;28.90;;;;;;5071774;28;20116;-49
2023/09/19 09:34:56;;;;;;;12.30;2.45;;;16.80;30.40;;;;;;5070505;28;20047;-50
2023/09/19 09:37:28;;;;;;;14.07;2.78;;;16.70;28.50;;;;;;5071603;28;20037;-46
2023/09/19 09:39:58;;;;;;;12.13;2.45;;;16.80;33.60;;;;;;5071509;28;20040;-49
2023/09/19 09:42:33;;;;;;;13.25;3.03;;;16.80;27.90;;;;;;5071760;28;20086;-48
2023/09/19 09:45:28;;;;;;;10.63;3.22;;;16.80;31.50;;;;;;5071637;28;20048;-47
2023/09/19 09:47:57;;;;;;;14.00;2.70;;;16.80;27.80;;;;;;5070345;28;20138;-46
2023/09/19 09:53:26;;;;;;;13.57;2.90;;;17.00;35.20;;;;;;5072704;28;20051;-46
2023/09/19 09:56:09;;;;;;;11.00;2.35;;;17.00;34.10;;;;;;5075814;28;20389;-45
2023/09/19 09:58:55;;;;;;;14.35;2.70;;;17.00;31.40;;;;;;5075614;28;20044;-46
2023/09/19 10:01:26;;;;;;;12.32;3.30;;;16.90;29.50;;;;;;5075463;28;20059;-47
2023/09/19 10:03:58;;;;;;;13.32;3.55;;;16.80;30.90;;;;;;5075427;28;20048;-45
2023/09/19 10:09:29;;;;;;;11.32;2.35;;;16.80;33.90;;;;;;5075355;28;20079;-45
2023/09/19 10:12:05;;;;;;;15.10;3.72;;;16.90;24.10;;;;;;5073749;28;20084;-47
2023/09/19 10:14:35;;;;;;;12.80;2.70;;;17.00;23.20;;;;;;5075097;28;20094;-47
2023/09/19 10:17:04;;;;;;;17.83;3.15;;;17.10;27.50;;;;;;5075198;28;20044;-46
2023/09/19 10:19:37;;;;;;;14.32;3.00;;;17.20;17.40;;;;;;5074886;28;20155;-46
2023/09/19 10:22:05;;;;;;;12.52;3.15;;;17.00;7.40;;;;;;5057008;28;20045;-45
2023/09/19 10:24:36;;;;;;;12.75;2.75;;;17.10;15.10;;;;;;5073561;28;20493;-46
2023/09/19 10:27:03;;;;;;;14.45;2.40;;;17.10;14.00;;;;;;5074964;28;20045;-48
2023/09/19 10:29:35;;;;;;;10.88;2.10;;;17.00;16.70;;;;;;5074718;28;20520;-47
2023/09/19 10:32:05;;;;;;;13.10;2.50;;;17.10;10.60;;;;;;5075035;28;20080;-47
2023/09/19 10:34:35;;;;;;;13.77;2.45;;;17.20;7.70;;;;;;5074568;28;20047;-45
2023/09/19 10:37:09;;;;;;;13.73;2.08;;;17.30;2.00;;;;;;5074949;28;20039;-46
2023/09/19 10:39:38;;;;;;;11.65;2.63;;;17.50;4.60;;;;;;5074795;28;20697;-46
2023/09/19 10:42:08;;;;;;;13.32;2.67;;;17.70;1.00;;;;;;5074595;28;20553;-46
2023/09/19 10:44:42;;;;;;;13.02;2.90;;;17.80;1.00;;;;;;5074566;28;20055;-47
2023/09/19 10:47:08;;;;;;;11.77;2.35;;;17.70;1.00;;;;;;5074397;28;20078;-46
2023/09/19 10:49:34;;;;;;;12.40;2.60;;;17.70;1.00;;;;;;5074628;28;20064;-46
2023/09/19 10:52:01;;;;;;;12.55;2.35;;;17.80;1.00;;;;;;5074608;28;20451;-49
2023/09/19 10:54:34;;;;;;;11.07;2.45;;;17.80;1.00;;;;;;5074435;28;20343;-45
2023/09/19 10:57:00;;;;;;;10.95;2.28;;;17.70;1.00;;;;;;5074379;28;20076;-50
2023/09/19 10:59:34;;;;;;;12.80;2.10;;;17.70;1.00;;;;;;5074722;28;20098;-49
2023/09/19 11:02:15;;;;;;;13.25;3.05;;;17.80;1.00;;;;;;5072845;28;20068;-45
2023/09/19 11:04:40;;;;;;;11.95;2.78;;;17.70;1.00;;;;;;5073741;28;20122;-45
2023/09/19 11:07:10;;;;;;;11.43;2.85;;;17.60;1.00;;;;;;5074401;28;20068;-46
2023/09/19 11:09:43;;;;;;;10.73;2.33;;;17.40;1.00;;;;;;5073075;28;20045;-46
2023/09/19 11:12:09;;;;;;;14.52;2.70;;;17.30;1.20;;;;;;5074222;28;20076;-49
2023/09/19 11:14:39;;;;;;;9.07;3.15;;;17.30;1.90;;;;;;5073879;28;20080;-46
2023/09/19 11:17:17;;;;;;;11.85;3.00;;;17.20;1.00;;;;;;5073980;28;20493;-48
2023/09/19 11:22:49;;;;;;;12.20;2.47;;;17.40;4.70;;;;;;5073835;28;20480;-46
2023/09/19 11:25:29;;;;;;;13.85;2.85;;;17.30;1.00;;;;;;5072554;28;20087;-48
2023/09/19 11:28:15;;;;;;;13.73;2.92;;;17.30;1.00;;;;;;5073552;28;20078;-46
2023/09/19 11:30:43;;;;;;;9.85;2.30;;;17.30;2.40;;;;;;5073804;28;20041;-49
2023/09/19 11:36:02;;;;;;;15.02;3.15;;;17.10;5.70;;;;;;5073592;28;20128;-49
2023/09/19 11:38:49;;;;;;;12.48;3.05;;;17.30;1.90;;;;;;5072149;28;20036;-47
2023/09/19 11:41:21;;;;;;;12.43;2.75;;;17.40;2.90;;;;;;5073431;28;20055;-46
2023/09/19 11:43:51;;;;;;;11.85;2.67;;;17.40;1.00;;;;;;5073619;28;20392;-47
2023/09/19 11:46:21;;;;;;;9.55;2.55;;;17.50;1.00;;;;;;5073334;28;20078;-48
2023/09/19 11:48:49;;;;;;;9.95;2.30;;;17.60;1.00;;;;;;5073267;28;20123;-48
2023/09/19 11:51:23;;;;;;;9.85;2.90;;;17.70;1.30;;;;;;5073053;28;20052;-46
2023/09/19 11:53:56;;;;;;;15.73;3.28;;;17.70;1.00;;;;;;5073348;28;20037;-47
2023/09/19 11:56:24;;;;;;;10.23;2.30;;;17.60;1.00;;;;;;5073340;28;20036;-47
2023/09/19 11:58:55;;;;;;;14.45;2.05;;;17.60;1.00;;;;;;5073082;28;20085;-45
2023/09/19 12:01:34;;;;;;;12.30;3.28;;;17.60;1.00;;;;;;5073074;28;20044;-46
2023/09/19 12:04:04;;;;;;;13.65;2.83;;;17.50;1.00;;;;;;5072968;28;20044;-46
2023/09/19 12:06:32;;;;;;;9.10;2.45;;;17.50;1.00;;;;;;5072801;28;20040;-45
2023/09/19 12:08:59;;;;;;;19.55;3.72;;;17.50;1.00;;;;;;5073033;28;20041;-49
2023/09/19 12:11:33;;;;;;;12.82;3.05;;;17.60;2.60;;;;;;5072972;28;20041;-49
2023/09/19 12:14:00;;;;;;;10.82;2.50;;;17.60;1.00;;;;;;5072895;28;20450;-47
2023/09/19 12:16:30;;;;;;;11.90;2.83;;;17.60;1.00;;;;;;5070502;28;20468;-47
2023/09/19 12:18:57;;;;;;;14.30;2.83;;;17.60;3.70;;;;;;5072782;28;20112;-47
2023/09/19 12:21:28;;;;;;;12.05;3.20;;;17.50;2.40;;;;;;5072935;28;20039;-49
2023/09/19 12:24:16;;;;;;;11.55;2.10;;;17.40;9.00;;;;;;5071478;28;20051;-48
2023/09/19 12:26:45;;;;;;;9.18;2.25;;;17.40;13.20;;;;;;5072468;28;20048;-46
2023/09/19 12:29:21;;;;;;;8.43;2.30;;;17.10;22.70;;;;;;5072326;28;20048;-47
2023/09/19 12:31:51;;;;;;;11.68;2.55;;;16.90;50.40;;;;;;5070858;28;20048;-47
2023/09/19 12:34:21;;;;;;;10.20;2.20;;;16.50;91.20;;;;;;5071074;28;20450;-47
2023/09/19 12:36:47;;;;;;;8.95;2.00;;;16.30;99.70;;;;;;5071284;28;20040;-47
2023/09/19 12:39:24;;;;;;;11.05;2.22;;;16.30;99.90;;;;;;5071927;28;20480;-45
2023/09/19 12:41:50;;;;;;;12.75;2.55;;;16.50;99.90;;;;;;5071747;28;20401;-46
2023/09/19 12:44:18;;;;;;;12.43;2.08;;;16.60;99.90;;;;;;5072046;28;20107;-45
2023/09/19 12:46:45;;;;;;;10.80;2.13;;;16.70;98.30;;;;;;5072208;28;20392;-46
2023/09/19 12:49:18;;;;;;;10.32;2.25;;;17.00;85.30;;;;;;5070550;28;20080;-47
2023/09/19 12:51:46;;;;;;;9.18;2.47;;;17.10;61.30;;;;;;5071602;28;20055;-46
2023/09/19 12:54:14;;;;;;;9.73;2.28;;;17.20;56.30;;;;;;5071752;28;20043;-47
2023/09/19 12:56:50;;;;;;;11.88;1.70;;;17.30;48.00;;;;;;5071782;28;20045;-46
2023/09/19 12:59:16;;;;;;;9.13;1.98;;;17.30;40.30;;;;;;5072002;28;20108;-50
2023/09/19 13:01:53;;;;;;;11.63;2.33;;;17.30;29.70;;;;;;5071894;28;20564;-46
2023/09/19 13:04:25;;;;;;;8.93;2.53;;;17.30;27.70;;;;;;5072079;28;20081;-48
2023/09/19 13:06:52;;;;;;;8.95;2.00;;;17.20;22.40;;;;;;5072135;28;20105;-48